sensor_id;sensor_type;location;lat;lon;timestamp;pressure;altitude;pressure_sealevel;temperature;humidity
6899;BME280;3488;42.616;23.350;2022-07-23T00:00:39;64279.16;;;21.97;48.97
6899;BME280;3488;42.616;23.350;2022-07-23T00:03:07;64267.69;;;21.91;48.88
6899;BME280;3488;42.616;23.350;2022-07-23T00:05:35;64269.78;;;21.91;49.10
6899;BME280;3488;42.616;23.350;2022-07-23T00:08:02;64252.00;;;21.76;49.72
6899;BME280;3488;42.616;23.350;2022-07-23T00:10:29;64265.03;;;21.81;49.34
6899;BME280;3488;42.616;23.350;2022-07-23T00:12:56;64261.94;;;21.83;48.53
6899;BME280;3488;42.616;23.350;2022-07-23T00:15:22;64267.16;;;21.88;48.30
6899;BME280;3488;42.616;23.350;2022-07-23T00:17:50;64269.28;;;21.93;47.33
6899;BME280;3488;42.616;23.350;2022-07-23T00:20:18;64265.13;;;21.94;47.24
6899;BME280;3488;42.616;23.350;2022-07-23T00:22:46;64275.53;;;21.99;47.32
6899;BME280;3488;42.616;23.350;2022-07-23T00:25:13;64276.06;;;21.99;47.63
6899;BME280;3488;42.616;23.350;2022-07-23T00:27:41;64287.50;;;22.03;47.11
6899;BME280;3488;42.616;23.350;2022-07-23T00:30:09;64282.31;;;22.03;46.49
6899;BME280;3488;42.616;23.350;2022-07-23T00:32:45;64261.94;;;21.83;47.43
6899;BME280;3488;42.616;23.350;2022-07-23T00:35:12;64254.63;;;21.78;47.59
6899;BME280;3488;42.616;23.350;2022-07-23T00:37:40;64256.75;;;21.83;47.11
6899;BME280;3488;42.616;23.350;2022-07-23T00:40:08;64262.94;;;21.82;47.01
6899;BME280;3488;42.616;23.350;2022-07-23T00:42:35;64252.50;;;21.74;47.20
6899;BME280;3488;42.616;23.350;2022-07-23T00:45:02;64248.38;;;21.75;46.79
6899;BME280;3488;42.616;23.350;2022-07-23T00:47:30;64252.53;;;21.76;47.45
6899;BME280;3488;42.616;23.350;2022-07-23T00:49:57;64245.22;;;21.69;48.10
6899;BME280;3488;42.616;23.350;2022-07-23T00:52:24;64242.56;;;21.62;47.91
6899;BME280;3488;42.616;23.350;2022-07-23T00:54:52;64234.75;;;21.59;48.09
6899;BME280;3488;42.616;23.350;2022-07-23T00:57:20;64233.72;;;21.58;47.94
6899;BME280;3488;42.616;23.350;2022-07-23T00:59:47;64231.09;;;21.56;47.75
6899;BME280;3488;42.616;23.350;2022-07-23T01:02:13;64223.25;;;21.46;49.06
6899;BME280;3488;42.616;23.350;2022-07-23T01:04:40;64211.28;;;21.39;49.20
6899;BME280;3488;42.616;23.350;2022-07-23T01:07:07;64216.44;;;21.37;48.37
6899;BME280;3488;42.616;23.350;2022-07-23T01:09:35;64211.25;;;21.34;47.89
6899;BME280;3488;42.616;23.350;2022-07-23T01:12:04;64207.59;;;21.31;48.12
6899;BME280;3488;42.616;23.350;2022-07-23T01:14:31;64194.03;;;21.20;48.28
6899;BME280;3488;42.616;23.350;2022-07-23T01:16:58;64202.38;;;21.26;48.55
6899;BME280;3488;42.616;23.350;2022-07-23T01:19:25;64192.44;;;21.16;49.32
6899;BME280;3488;42.616;23.350;2022-07-23T01:21:53;64200.28;;;21.24;49.56
6899;BME280;3488;42.616;23.350;2022-07-23T01:24:24;64200.81;;;21.24;48.98
6899;BME280;3488;42.616;23.350;2022-07-23T01:26:51;64194.53;;;21.18;49.94
6899;BME280;3488;42.616;23.350;2022-07-23T01:29:18;64183.59;;;21.10;49.73
6899;BME280;3488;42.616;23.350;2022-07-23T01:31:47;64178.38;;;21.08;50.21
6899;BME280;3488;42.616;23.350;2022-07-23T01:34:14;64170.50;;;20.98;50.77
6899;BME280;3488;42.616;23.350;2022-07-23T01:36:40;64173.66;;;20.98;50.81
6899;BME280;3488;42.616;23.350;2022-07-23T01:39:07;64165.78;;;20.91;50.46
6899;BME280;3488;42.616;23.350;2022-07-23T01:41:36;64156.41;;;20.84;51.15
6899;BME280;3488;42.616;23.350;2022-07-23T01:44:02;64160.53;;;20.83;50.59
6899;BME280;3488;42.616;23.350;2022-07-23T01:46:29;64149.06;;;20.72;51.13
6899;BME280;3488;42.616;23.350;2022-07-23T01:48:56;64143.38;;;20.72;50.28
6899;BME280;3488;42.616;23.350;2022-07-23T01:51:23;64146.00;;;20.74;49.36
6899;BME280;3488;42.616;23.350;2022-07-23T01:53:50;64144.94;;;20.73;49.39
6899;BME280;3488;42.616;23.350;2022-07-23T01:56:16;64157.44;;;20.83;49.09
6899;BME280;3488;42.616;23.350;2022-07-23T01:58:47;64150.16;;;20.78;49.36
6899;BME280;3488;42.616;23.350;2022-07-23T02:01:14;64150.09;;;20.73;49.13
6899;BME280;3488;42.616;23.350;2022-07-23T02:03:41;64137.66;;;20.68;49.36
6899;BME280;3488;42.616;23.350;2022-07-23T02:06:08;64145.44;;;20.71;49.52
6899;BME280;3488;42.616;23.350;2022-07-23T02:08:35;64137.66;;;20.68;49.50
6899;BME280;3488;42.616;23.350;2022-07-23T02:11:02;64141.28;;;20.69;49.29
6899;BME280;3488;42.616;23.350;2022-07-23T02:13:29;64136.09;;;20.67;48.92
6899;BME280;3488;42.616;23.350;2022-07-23T02:15:57;64137.63;;;20.63;48.98
6899;BME280;3488;42.616;23.350;2022-07-23T02:18:24;64137.09;;;20.63;50.11
6899;BME280;3488;42.616;23.350;2022-07-23T02:20:51;64137.13;;;20.65;50.15
6899;BME280;3488;42.616;23.350;2022-07-23T02:23:17;64134.50;;;20.63;51.25
6899;BME280;3488;42.616;23.350;2022-07-23T02:25:44;64123.56;;;20.57;51.16
6899;BME280;3488;42.616;23.350;2022-07-23T02:28:11;64123.53;;;20.52;50.88
6899;BME280;3488;42.616;23.350;2022-07-23T02:30:38;64124.06;;;20.53;50.87
6899;BME280;3488;42.616;23.350;2022-07-23T02:33:06;64125.59;;;20.52;51.79
6899;BME280;3488;42.616;23.350;2022-07-23T02:35:34;64121.94;;;20.48;51.69
6899;BME280;3488;42.616;23.350;2022-07-23T02:38:00;64107.88;;;20.37;51.91
6899;BME280;3488;42.616;23.350;2022-07-23T02:40:27;64100.06;;;20.32;51.51
6899;BME280;3488;42.616;23.350;2022-07-23T02:42:54;64101.06;;;20.28;51.58
6899;BME280;3488;42.616;23.350;2022-07-23T02:45:21;64103.16;;;20.30;51.93
6899;BME280;3488;42.616;23.350;2022-07-23T02:47:48;64096.44;;;20.29;51.44
6899;BME280;3488;42.616;23.350;2022-07-23T02:50:16;64104.75;;;20.37;51.90
6899;BME280;3488;42.616;23.350;2022-07-23T02:52:43;64111.00;;;20.38;51.83
6899;BME280;3488;42.616;23.350;2022-07-23T02:55:10;64105.25;;;20.32;51.63
6899;BME280;3488;42.616;23.350;2022-07-23T02:57:37;64104.22;;;20.34;51.93
6899;BME280;3488;42.616;23.350;2022-07-23T03:00:05;64105.28;;;20.37;51.87
6899;BME280;3488;42.616;23.350;2022-07-23T03:02:33;64101.59;;;20.31;52.80
6899;BME280;3488;42.616;23.350;2022-07-23T03:04:59;64100.59;;;20.33;51.90
6899;BME280;3488;42.616;23.350;2022-07-23T03:07:28;64097.97;;;20.28;52.71
6899;BME280;3488;42.616;23.350;2022-07-23T03:09:55;64102.63;;;20.30;52.40
6899;BME280;3488;42.616;23.350;2022-07-23T03:12:21;64105.75;;;20.30;53.06
6899;BME280;3488;42.616;23.350;2022-07-23T03:14:48;64093.31;;;20.26;52.10
6899;BME280;3488;42.616;23.350;2022-07-23T03:17:15;64104.19;;;20.31;52.69
6899;BME280;3488;42.616;23.350;2022-07-23T03:19:42;64100.03;;;20.30;52.71
6899;BME280;3488;42.616;23.350;2022-07-23T03:22:09;64097.47;;;20.30;53.29
6899;BME280;3488;42.616;23.350;2022-07-23T03:24:37;64094.88;;;20.27;54.84
6899;BME280;3488;42.616;23.350;2022-07-23T03:27:24;64098.47;;;20.28;55.08
6899;BME280;3488;42.616;23.350;2022-07-23T03:29:51;64099.03;;;20.31;55.14
6899;BME280;3488;42.616;23.350;2022-07-23T03:32:19;64094.88;;;20.27;53.27
6899;BME280;3488;42.616;23.350;2022-07-23T03:34:46;64100.63;;;20.35;52.87
6899;BME280;3488;42.616;23.350;2022-07-23T03:37:13;64108.38;;;20.35;52.76
6899;BME280;3488;42.616;23.350;2022-07-23T03:39:42;64107.88;;;20.37;52.47
6899;BME280;3488;42.616;23.350;2022-07-23T03:42:09;64108.41;;;20.40;53.54
6899;BME280;3488;42.616;23.350;2022-07-23T03:44:36;64113.09;;;20.42;53.15
6899;BME280;3488;42.616;23.350;2022-07-23T03:47:04;64114.16;;;20.46;53.80
6899;BME280;3488;42.616;23.350;2022-07-23T03:49:32;64116.78;;;20.51;54.39
6899;BME280;3488;42.616;23.350;2022-07-23T03:51:59;64124.59;;;20.56;55.19
6899;BME280;3488;42.616;23.350;2022-07-23T03:54:26;64136.03;;;20.62;54.30
6899;BME280;3488;42.616;23.350;2022-07-23T03:56:54;64136.59;;;20.65;53.78
6899;BME280;3488;42.616;23.350;2022-07-23T03:59:21;64139.19;;;20.67;55.02
6899;BME280;3488;42.616;23.350;2022-07-23T04:01:48;64144.97;;;20.76;55.11
6899;BME280;3488;42.616;23.350;2022-07-23T04:04:15;64157.94;;;20.81;55.14
6899;BME280;3488;42.616;23.350;2022-07-23T04:06:42;64156.44;;;20.87;55.58
6899;BME280;3488;42.616;23.350;2022-07-23T04:09:08;64162.72;;;20.93;55.17
6899;BME280;3488;42.616;23.350;2022-07-23T04:11:35;64172.09;;;20.99;55.63
6899;BME280;3488;42.616;23.350;2022-07-23T04:14:04;64162.19;;;20.92;55.12
6899;BME280;3488;42.616;23.350;2022-07-23T04:16:31;64173.13;;;21.00;55.00
6899;BME280;3488;42.616;23.350;2022-07-23T04:18:58;64174.72;;;21.04;54.66
6899;BME280;3488;42.616;23.350;2022-07-23T04:21:25;64191.41;;;21.18;55.20
6899;BME280;3488;42.616;23.350;2022-07-23T04:23:52;64199.78;;;21.26;57.10
6899;BME280;3488;42.616;23.350;2022-07-23T04:26:19;64187.25;;;21.14;57.91
6899;BME280;3488;42.616;23.350;2022-07-23T04:28:46;64195.09;;;21.26;56.86
6899;BME280;3488;42.616;23.350;2022-07-23T04:31:15;64210.22;;;21.36;57.25
6899;BME280;3488;42.616;23.350;2022-07-23T04:33:41;64211.78;;;21.37;57.96
6899;BME280;3488;42.616;23.350;2022-07-23T04:36:08;64232.09;;;21.52;59.34
6899;BME280;3488;42.616;23.350;2022-07-23T04:38:35;64230.56;;;21.55;61.62
6899;BME280;3488;42.616;23.350;2022-07-23T04:41:02;64214.38;;;21.40;64.00
6899;BME280;3488;42.616;23.350;2022-07-23T04:43:29;64196.63;;;21.20;65.63
6899;BME280;3488;42.616;23.350;2022-07-23T04:45:56;64212.81;;;21.38;65.11
6899;BME280;3488;42.616;23.350;2022-07-23T04:48:24;64223.78;;;21.46;64.69
6899;BME280;3488;42.616;23.350;2022-07-23T04:50:51;64238.91;;;21.61;64.38
6899;BME280;3488;42.616;23.350;2022-07-23T04:53:18;64249.91;;;21.74;65.28
6899;BME280;3488;42.616;23.350;2022-07-23T04:55:45;64250.44;;;21.74;65.85
6899;BME280;3488;42.616;23.350;2022-07-23T04:58:12;64246.81;;;21.73;64.62
6899;BME280;3488;42.616;23.350;2022-07-23T05:00:39;64253.06;;;21.77;63.28
6899;BME280;3488;42.616;23.350;2022-07-23T05:03:06;64231.69;;;21.61;64.00
6899;BME280;3488;42.616;23.350;2022-07-23T05:05:35;64228.47;;;21.51;64.12
6899;BME280;3488;42.616;23.350;2022-07-23T05:08:02;64214.91;;;21.40;64.21
6899;BME280;3488;42.616;23.350;2022-07-23T05:10:29;64226.41;;;21.51;64.14
6899;BME280;3488;42.616;23.350;2022-07-23T05:12:56;64246.25;;;21.70;63.93
6899;BME280;3488;42.616;23.350;2022-07-23T05:15:23;64271.88;;;21.95;62.83
6899;BME280;3488;42.616;23.350;2022-07-23T05:17:50;64296.94;;;22.17;61.79
6899;BME280;3488;42.616;23.350;2022-07-23T05:20:17;64289.09;;;22.09;61.85
6899;BME280;3488;42.616;23.350;2022-07-23T05:22:45;64290.16;;;22.13;64.13
6899;BME280;3488;42.616;23.350;2022-07-23T05:25:13;64311.06;;;22.33;62.62
6899;BME280;3488;42.616;23.350;2022-07-23T05:27:44;64312.13;;;22.34;63.80
6899;BME280;3488;42.616;23.350;2022-07-23T05:30:12;64301.66;;;22.24;63.54
6899;BME280;3488;42.616;23.350;2022-07-23T05:32:38;64313.22;;;22.40;63.17
6899;BME280;3488;42.616;23.350;2022-07-23T05:35:06;64342.41;;;22.58;61.79
6899;BME280;3488;42.616;23.350;2022-07-23T05:37:34;64365.97;;;22.83;60.64
6899;BME280;3488;42.616;23.350;2022-07-23T05:40:03;64384.31;;;23.08;58.95
6899;BME280;3488;42.616;23.350;2022-07-23T05:42:31;64417.78;;;23.35;58.41
6899;BME280;3488;42.616;23.350;2022-07-23T05:44:58;64440.81;;;23.60;57.60
6899;BME280;3488;42.616;23.350;2022-07-23T05:47:25;64450.22;;;23.69;57.73
6899;BME280;3488;42.616;23.350;2022-07-23T05:49:52;64458.59;;;23.77;57.33
6899;BME280;3488;42.616;23.350;2022-07-23T05:52:19;64483.16;;;23.98;56.49
6899;BME280;3488;42.616;23.350;2022-07-23T05:54:46;64495.22;;;24.10;56.03
6899;BME280;3488;42.616;23.350;2022-07-23T05:57:14;64500.44;;;24.15;55.72
6899;BME280;3488;42.616;23.350;2022-07-23T05:59:41;64518.78;;;24.30;54.15
6899;BME280;3488;42.616;23.350;2022-07-23T06:02:08;64536.56;;;24.47;53.62
6899;BME280;3488;42.616;23.350;2022-07-23T06:04:34;64521.94;;;24.38;52.57
6899;BME280;3488;42.616;23.350;2022-07-23T06:07:01;64541.81;;;24.54;52.20
6899;BME280;3488;42.616;23.350;2022-07-23T06:09:28;64557.53;;;24.72;51.90
6899;BME280;3488;42.616;23.350;2022-07-23T06:11:55;64566.94;;;24.76;50.66
6899;BME280;3488;42.616;23.350;2022-07-23T06:14:23;64574.78;;;24.83;51.10
6899;BME280;3488;42.616;23.350;2022-07-23T06:16:50;64590.00;;;25.00;49.45
6899;BME280;3488;42.616;23.350;2022-07-23T06:19:17;64602.59;;;25.15;48.51
6899;BME280;3488;42.616;23.350;2022-07-23T06:21:44;64618.81;;;25.26;48.39
6899;BME280;3488;42.616;23.350;2022-07-23T06:24:11;64636.63;;;25.40;47.01
6899;BME280;3488;42.616;23.350;2022-07-23T06:26:38;64651.31;;;25.57;46.64
6899;BME280;3488;42.616;23.350;2022-07-23T06:29:04;64678.03;;;25.80;46.17
6899;BME280;3488;42.616;23.350;2022-07-23T06:31:33;64691.66;;;25.98;46.46
6899;BME280;3488;42.616;23.350;2022-07-23T06:33:59;64684.34;;;25.93;44.88
6899;BME280;3488;42.616;23.350;2022-07-23T06:36:26;64692.69;;;25.94;46.32
6899;BME280;3488;42.616;23.350;2022-07-23T06:38:53;64697.44;;;26.03;45.27
6899;BME280;3488;42.616;23.350;2022-07-23T06:41:20;64701.13;;;26.07;44.68
6899;BME280;3488;42.616;23.350;2022-07-23T06:43:48;64714.22;;;26.17;44.12
6899;BME280;3488;42.616;23.350;2022-07-23T06:46:14;64705.28;;;26.06;43.58
6899;BME280;3488;42.616;23.350;2022-07-23T06:48:43;64708.97;;;26.14;43.97
6899;BME280;3488;42.616;23.350;2022-07-23T06:51:10;64700.06;;;26.06;44.81
6899;BME280;3488;42.616;23.350;2022-07-23T06:53:36;64723.13;;;26.26;43.44
6899;BME280;3488;42.616;23.350;2022-07-23T06:56:04;64745.13;;;26.49;43.25
6899;BME280;3488;42.616;23.350;2022-07-23T06:58:31;64762.47;;;26.68;42.92
6899;BME280;3488;42.616;23.350;2022-07-23T07:00:57;64716.84;;;26.22;45.10
6899;BME280;3488;42.616;23.350;2022-07-23T07:03:24;64719.97;;;26.23;44.55
6899;BME280;3488;42.616;23.350;2022-07-23T07:05:53;64725.22;;;26.28;44.72
6899;BME280;3488;42.616;23.350;2022-07-23T07:08:19;64736.22;;;26.38;44.47
6899;BME280;3488;42.616;23.350;2022-07-23T07:10:46;64756.66;;;26.53;44.10
6899;BME280;3488;42.616;23.350;2022-07-23T07:13:13;64763.50;;;26.67;44.18
6899;BME280;3488;42.616;23.350;2022-07-23T07:15:40;64762.97;;;26.66;45.04
6899;BME280;3488;42.616;23.350;2022-07-23T07:18:07;64770.84;;;26.74;45.70
6899;BME280;3488;42.616;23.350;2022-07-23T07:20:34;64781.88;;;26.84;45.18
6899;BME280;3488;42.616;23.350;2022-07-23T07:23:02;64795.50;;;26.95;43.45
6899;BME280;3488;42.616;23.350;2022-07-23T07:25:29;64808.09;;;27.09;42.71
6899;BME280;3488;42.616;23.350;2022-07-23T07:27:56;64825.41;;;27.26;40.47
6899;BME280;3488;42.616;23.350;2022-07-23T07:30:24;64822.78;;;27.26;44.28
6899;BME280;3488;42.616;23.350;2022-07-23T07:32:51;64846.41;;;27.46;41.45
6899;BME280;3488;42.616;23.350;2022-07-23T07:35:18;64859.50;;;27.56;40.69
6899;BME280;3488;42.616;23.350;2022-07-23T07:37:45;64862.16;;;27.59;40.35
6899;BME280;3488;42.616;23.350;2022-07-23T07:40:13;64893.13;;;27.91;40.98
6899;BME280;3488;42.616;23.350;2022-07-23T07:42:46;64904.16;;;27.99;40.45
6899;BME280;3488;42.616;23.350;2022-07-23T07:45:13;64897.31;;;27.92;40.63
6899;BME280;3488;42.616;23.350;2022-07-23T07:47:41;64919.38;;;28.11;40.20
6899;BME280;3488;42.616;23.350;2022-07-23T07:50:08;64925.16;;;28.24;41.57
6899;BME280;3488;42.616;23.350;2022-07-23T07:52:36;64939.84;;;28.33;39.65
6899;BME280;3488;42.616;23.350;2022-07-23T07:55:03;64920.41;;;28.09;39.60
6899;BME280;3488;42.616;23.350;2022-07-23T07:57:31;64898.91;;;27.96;39.74
6899;BME280;3488;42.616;23.350;2022-07-23T07:59:58;64900.47;;;27.95;39.80
6899;BME280;3488;42.616;23.350;2022-07-23T08:02:25;64900.47;;;27.93;40.91
6899;BME280;3488;42.616;23.350;2022-07-23T08:04:54;64917.78;;;28.09;39.92
6899;BME280;3488;42.616;23.350;2022-07-23T08:07:22;64917.28;;;28.14;40.87
6899;BME280;3488;42.616;23.350;2022-07-23T08:09:49;64929.84;;;28.23;39.34
6899;BME280;3488;42.616;23.350;2022-07-23T08:12:16;64955.06;;;28.50;40.02
6899;BME280;3488;42.616;23.350;2022-07-23T08:14:44;64970.84;;;28.65;38.55
6899;BME280;3488;42.616;23.350;2022-07-23T08:17:11;64982.91;;;28.74;38.62
6899;BME280;3488;42.616;23.350;2022-07-23T08:19:38;65007.09;;;28.97;37.86
6899;BME280;3488;42.616;23.350;2022-07-23T08:22:05;65006.53;;;28.99;37.70
6899;BME280;3488;42.616;23.350;2022-07-23T08:24:32;65020.75;;;29.15;38.16
6899;BME280;3488;42.616;23.350;2022-07-23T08:26:59;65031.25;;;29.20;37.64
6899;BME280;3488;42.616;23.350;2022-07-23T08:29:26;65039.69;;;29.28;38.03
6899;BME280;3488;42.616;23.350;2022-07-23T08:31:54;65059.09;;;29.42;38.43
6899;BME280;3488;42.616;23.350;2022-07-23T08:34:21;65057.53;;;29.45;36.94
6899;BME280;3488;42.616;23.350;2022-07-23T08:36:48;65054.91;;;29.43;37.03
6899;BME280;3488;42.616;23.350;2022-07-23T08:39:15;65076.44;;;29.64;36.98
6899;BME280;3488;42.616;23.350;2022-07-23T08:41:42;65092.22;;;29.79;34.98
6899;BME280;3488;42.616;23.350;2022-07-23T08:44:09;65071.72;;;29.62;36.13
6899;BME280;3488;42.616;23.350;2022-07-23T08:46:37;65079.63;;;29.69;36.51
6899;BME280;3488;42.616;23.350;2022-07-23T08:49:08;65078.56;;;29.68;36.76
6899;BME280;3488;42.616;23.350;2022-07-23T08:51:35;65095.38;;;29.84;36.37
6899;BME280;3488;42.616;23.350;2022-07-23T08:54:02;65099.59;;;29.88;36.77
6899;BME280;3488;42.616;23.350;2022-07-23T08:56:29;65101.19;;;29.87;35.87
6899;BME280;3488;42.616;23.350;2022-07-23T08:58:56;65124.81;;;30.07;35.87
6899;BME280;3488;42.616;23.350;2022-07-23T09:01:24;65121.66;;;30.09;35.80
6899;BME280;3488;42.616;23.350;2022-07-23T09:03:50;65154.28;;;30.35;35.28
6899;BME280;3488;42.616;23.350;2022-07-23T09:06:19;65162.16;;;30.48;33.12
6899;BME280;3488;42.616;23.350;2022-07-23T09:08:45;65155.84;;;30.39;34.05
6899;BME280;3488;42.616;23.350;2022-07-23T09:11:15;65191.06;;;30.76;34.75
6899;BME280;3488;42.616;23.350;2022-07-23T09:13:46;65216.34;;;31.00;33.76
6899;BME280;3488;42.616;23.350;2022-07-23T09:16:15;65226.88;;;31.05;32.63
6899;BME280;3488;42.616;23.350;2022-07-23T09:18:44;65241.06;;;31.21;32.20
6899;BME280;3488;42.616;23.350;2022-07-23T09:21:16;65251.63;;;31.33;33.01
6899;BME280;3488;42.616;23.350;2022-07-23T09:23:46;65279.50;;;31.60;33.58
6899;BME280;3488;42.616;23.350;2022-07-23T09:26:19;65284.22;;;31.62;33.15
6899;BME280;3488;42.616;23.350;2022-07-23T09:28:57;65302.13;;;31.79;31.67
6899;BME280;3488;42.616;23.350;2022-07-23T09:31:27;65283.69;;;31.64;31.98
6899;BME280;3488;42.616;23.350;2022-07-23T09:34:10;65295.28;;;31.73;31.27
6899;BME280;3488;42.616;23.350;2022-07-23T09:36:38;65259.00;;;31.35;31.90
6899;BME280;3488;42.616;23.350;2022-07-23T09:39:07;65261.09;;;31.42;31.63
6899;BME280;3488;42.616;23.350;2022-07-23T09:41:36;65283.69;;;31.64;30.14
6899;BME280;3488;42.616;23.350;2022-07-23T09:44:08;65282.66;;;31.60;28.79
6899;BME280;3488;42.616;23.350;2022-07-23T09:46:35;65312.66;;;31.87;29.58
6899;BME280;3488;42.616;23.350;2022-07-23T09:49:11;65320.03;;;31.99;31.41
6899;BME280;3488;42.616;23.350;2022-07-23T09:51:44;65320.56;;;31.99;31.16
6899;BME280;3488;42.616;23.350;2022-07-23T09:54:26;65328.44;;;32.07;31.34
6899;BME280;3488;42.616;23.350;2022-07-23T09:56:55;65342.69;;;32.18;31.41
6899;BME280;3488;42.616;23.350;2022-07-23T09:59:24;65359.00;;;32.33;29.89
6899;BME280;3488;42.616;23.350;2022-07-23T10:01:53;65367.97;;;32.42;30.15
6899;BME280;3488;42.616;23.350;2022-07-23T10:04:22;65373.25;;;32.44;27.82
6899;BME280;3488;42.616;23.350;2022-07-23T10:06:51;65378.50;;;32.54;27.79
6899;BME280;3488;42.616;23.350;2022-07-23T10:09:24;65384.28;;;32.55;27.60
6899;BME280;3488;42.616;23.350;2022-07-23T10:11:54;65390.59;;;32.63;27.10
6899;BME280;3488;42.616;23.350;2022-07-23T10:14:24;65406.41;;;32.73;26.96
6899;BME280;3488;42.616;23.350;2022-07-23T10:16:52;65387.97;;;32.63;26.93
6899;BME280;3488;42.616;23.350;2022-07-23T10:19:20;65389.56;;;32.62;26.77
6899;BME280;3488;42.616;23.350;2022-07-23T10:21:50;65395.84;;;32.71;27.69
6899;BME280;3488;42.616;23.350;2022-07-23T10:24:28;65415.34;;;32.87;27.18
6899;BME280;3488;42.616;23.350;2022-07-23T10:27:07;65402.69;;;32.77;27.26
6899;BME280;3488;42.616;23.350;2022-07-23T10:29:45;65403.78;;;32.73;26.16
6899;BME280;3488;42.616;23.350;2022-07-23T10:32:26;65417.47;;;32.89;26.44
6899;BME280;3488;42.616;23.350;2022-07-23T10:35:07;65444.88;;;33.15;28.46
6899;BME280;3488;42.616;23.350;2022-07-23T10:37:39;65459.63;;;33.29;26.84
6899;BME280;3488;42.616;23.350;2022-07-23T10:40:12;65463.84;;;33.33;25.72
6899;BME280;3488;42.616;23.350;2022-07-23T10:42:40;65470.16;;;33.39;25.93
6899;BME280;3488;42.616;23.350;2022-07-23T10:45:25;65488.09;;;33.56;25.83
6899;BME280;3488;42.616;23.350;2022-07-23T10:47:53;65498.63;;;33.64;24.60
6899;BME280;3488;42.616;23.350;2022-07-23T10:50:22;65517.59;;;33.84;25.68
6899;BME280;3488;42.616;23.350;2022-07-23T10:53:19;65526.03;;;33.90;24.27
6899;BME280;3488;42.616;23.350;2022-07-23T10:55:50;65517.59;;;33.84;22.57
6899;BME280;3488;42.616;23.350;2022-07-23T10:58:32;65473.31;;;33.42;23.57
6899;BME280;3488;42.616;23.350;2022-07-23T11:01:34;65471.22;;;33.40;21.23
6899;BME280;3488;42.616;23.350;2022-07-23T11:04:02;65487.06;;;33.53;21.79
6899;BME280;3488;42.616;23.350;2022-07-23T11:07:07;65518.13;;;33.80;20.57
6899;BME280;3488;42.616;23.350;2022-07-23T11:09:46;65537.63;;;34.04;20.52
6899;BME280;3488;42.616;23.350;2022-07-23T11:12:35;65553.47;;;34.16;18.58
6899;BME280;3488;42.616;23.350;2022-07-23T11:15:05;65561.34;;;34.29;20.04
6899;BME280;3488;42.616;23.350;2022-07-23T11:17:34;65571.38;;;34.36;20.42
6899;BME280;3488;42.616;23.350;2022-07-23T11:20:16;65591.44;;;34.52;22.16
6899;BME280;3488;42.616;23.350;2022-07-23T11:22:49;65601.44;;;34.67;21.58
6899;BME280;3488;42.616;23.350;2022-07-23T11:25:31;65562.41;;;34.30;21.50
6899;BME280;3488;42.616;23.350;2022-07-23T11:28:13;65538.72;;;34.05;20.82
6899;BME280;3488;42.616;23.350;2022-07-23T11:30:43;65557.16;;;34.20;21.15
6899;BME280;3488;42.616;23.350;2022-07-23T11:33:18;65573.00;;;34.32;20.42
6899;BME280;3488;42.616;23.350;2022-07-23T11:35:47;65564.50;;;34.29;19.96
6899;BME280;3488;42.616;23.350;2022-07-23T11:38:17;65587.75;;;34.51;19.59
6899;BME280;3488;42.616;23.350;2022-07-23T11:40:48;65596.72;;;34.57;19.77
6899;BME280;3488;42.616;23.350;2022-07-23T11:43:19;65612.53;;;34.72;18.57
6899;BME280;3488;42.616;23.350;2022-07-23T11:45:48;65612.00;;;34.72;18.18
6899;BME280;3488;42.616;23.350;2022-07-23T11:48:19;65602.50;;;34.65;19.00
6899;BME280;3488;42.616;23.350;2022-07-23T11:50:46;65588.78;;;34.52;17.80
6899;BME280;3488;42.616;23.350;2022-07-23T11:53:21;65564.53;;;34.24;18.65
6899;BME280;3488;42.616;23.350;2022-07-23T11:55:48;65577.69;;;34.42;18.94
6899;BME280;3488;42.616;23.350;2022-07-23T11:58:15;65617.81;;;34.77;19.00
6899;BME280;3488;42.616;23.350;2022-07-23T12:00:43;65651.06;;;35.09;18.81
6899;BME280;3488;42.616;23.350;2022-07-23T12:03:10;65670.03;;;35.27;18.68
6899;BME280;3488;42.616;23.350;2022-07-23T12:05:38;65644.72;;;35.01;19.44
6899;BME280;3488;42.616;23.350;2022-07-23T12:08:07;65648.41;;;35.07;19.52
6899;BME280;3488;42.616;23.350;2022-07-23T12:10:35;65661.06;;;35.24;18.13
6899;BME280;3488;42.616;23.350;2022-07-23T12:13:04;65653.13;;;35.16;18.32
6899;BME280;3488;42.616;23.350;2022-07-23T12:15:36;65646.84;;;35.05;18.21
6899;BME280;3488;42.616;23.350;2022-07-23T12:18:08;65660.56;;;35.16;17.72
6899;BME280;3488;42.616;23.350;2022-07-23T12:20:37;65623.06;;;34.85;17.55
6899;BME280;3488;42.616;23.350;2022-07-23T12:23:06;65624.13;;;34.86;17.36
6899;BME280;3488;42.616;23.350;2022-07-23T12:25:34;65692.75;;;35.49;17.74
6899;BME280;3488;42.616;23.350;2022-07-23T12:28:04;65760.84;;;36.14;17.10
6899;BME280;3488;42.616;23.350;2022-07-23T12:30:33;65813.13;;;36.63;17.50
6899;BME280;3488;42.616;23.350;2022-07-23T12:33:01;65855.88;;;37.06;17.37
6899;BME280;3488;42.616;23.350;2022-07-23T12:35:34;65780.38;;;36.32;17.69
6899;BME280;3488;42.616;23.350;2022-07-23T12:38:04;65734.94;;;35.94;17.14
6899;BME280;3488;42.616;23.350;2022-07-23T12:40:32;65776.13;;;36.28;17.14
6899;BME280;3488;42.616;23.350;2022-07-23T12:43:02;65830.03;;;36.77;16.75
6899;BME280;3488;42.616;23.350;2022-07-23T12:45:43;65883.91;;;37.31;16.51
6899;BME280;3488;42.616;23.350;2022-07-23T12:48:19;65938.84;;;37.85;16.07
6899;BME280;3488;42.616;23.350;2022-07-23T12:50:56;65829.47;;;36.81;15.79
6899;BME280;3488;42.616;23.350;2022-07-23T12:53:25;65836.38;;;36.85;16.10
6899;BME280;3488;42.616;23.350;2022-07-23T12:55:58;65891.31;;;37.38;16.36
6899;BME280;3488;42.616;23.350;2022-07-23T12:58:26;65910.84;;;37.59;16.02
6899;BME280;3488;42.616;23.350;2022-07-23T13:01:03;65821.56;;;36.71;15.98
6899;BME280;3488;42.616;23.350;2022-07-23T13:03:37;65806.78;;;36.57;15.05
6899;BME280;3488;42.616;23.350;2022-07-23T13:06:07;65787.75;;;36.42;16.33
6899;BME280;3488;42.616;23.350;2022-07-23T13:08:36;65789.34;;;36.43;15.05
6899;BME280;3488;42.616;23.350;2022-07-23T13:11:03;65745.53;;;35.99;15.49
6899;BME280;3488;42.616;23.350;2022-07-23T13:13:33;65756.63;;;36.10;15.27
6899;BME280;3488;42.616;23.350;2022-07-23T13:16:01;65787.78;;;36.37;15.12
6899;BME280;3488;42.616;23.350;2022-07-23T13:18:29;65855.38;;;37.03;14.70